ROT67PZ LRTR-LROP
Flight info
| Callsign | ROT67PZ |
|---|---|
| Flight time | 0h 38m |
| Altitude | 25000 |
| Route | DITAX DCT LAMIT DCT TOSVI |
| Aircraft | B738/M-SDE2E3FGHIRWXY/LB1 |
Departure
| Time | 2026-05-08 17:26 |
|---|---|
| Airport | Timișoara Traian Vuia International Airport (LRTR) |
Arrival
| Time | 2026-05-08 18:04 |
|---|---|
| Airport | Bucharest Henri Coandă International Airport (LROP) |
| Time | Latitude | Longitude | Altitude | Speed | Heading |
|---|---|---|---|---|---|
| 2026-05-08 17:05 | 45.81084 | 21.32083 | 292 ft | 0 kts | 200° |
| 2026-05-08 17:19 | 45.81100 | 21.32093 | 340 ft | 4 kts | 215° |
| 2026-05-08 17:19 | 45.81117 | 21.32120 | 336 ft | 4 kts | 259° |
| 2026-05-08 17:19 | 45.81116 | 21.32145 | 339 ft | 0 kts | 290° |
| 2026-05-08 17:21 | 45.81116 | 21.32144 | 339 ft | 0 kts | 290° |
| 2026-05-08 17:21 | 45.81122 | 21.32123 | 336 ft | 5 kts | 290° |
| 2026-05-08 17:21 | 45.81135 | 21.32072 | 339 ft | 6 kts | 294° |
| 2026-05-08 17:22 | 45.81161 | 21.31997 | 338 ft | 11 kts | 292° |
| 2026-05-08 17:22 | 45.81189 | 21.31882 | 339 ft | 12 kts | 289° |
| 2026-05-08 17:22 | 45.81217 | 21.31768 | 336 ft | 12 kts | 290° |
| 2026-05-08 17:22 | 45.81245 | 21.31657 | 338 ft | 12 kts | 289° |
| 2026-05-08 17:23 | 45.81295 | 21.31575 | 339 ft | 11 kts | 351° |
| 2026-05-08 17:23 | 45.81367 | 21.31604 | 337 ft | 9 kts | 20° |
| 2026-05-08 17:23 | 45.81386 | 21.31615 | 337 ft | 0 kts | 20° |
| 2026-05-08 17:24 | 45.81397 | 21.31620 | 336 ft | 4 kts | 20° |
| 2026-05-08 17:24 | 45.81446 | 21.31646 | 339 ft | 11 kts | 20° |
| 2026-05-08 17:24 | 45.81501 | 21.31677 | 340 ft | 1 kts | 38° |
| 2026-05-08 17:25 | 45.81505 | 21.31694 | 337 ft | 3 kts | 80° |
| 2026-05-08 17:25 | 45.81495 | 21.31749 | 337 ft | 8 kts | 108° |
| 2026-05-08 17:25 | 45.81438 | 21.31974 | 337 ft | 54 kts | 109° |
| 2026-05-08 17:25 | 45.81232 | 21.32795 | 348 ft | 120 kts | 110° |
| 2026-05-08 17:26 | 45.80898 | 21.34161 | 439 ft | 161 kts | 108° |
| 2026-05-08 17:26 | 45.80508 | 21.35672 | 1050 ft | 166 kts | 111° |
| 2026-05-08 17:26 | 45.80089 | 21.37261 | 1648 ft | 176 kts | 111° |
| 2026-05-08 17:26 | 45.79657 | 21.38945 | 2239 ft | 186 kts | 111° |
| 2026-05-08 17:27 | 45.79183 | 21.40836 | 2548 ft | 217 kts | 110° |
| 2026-05-08 17:27 | 45.78649 | 21.42990 | 2779 ft | 242 kts | 111° |
| 2026-05-08 17:27 | 45.77939 | 21.45311 | 3047 ft | 265 kts | 117° |
| 2026-05-08 17:27 | 45.77114 | 21.47715 | 3772 ft | 271 kts | 117° |
| 2026-05-08 17:28 | 45.76267 | 21.50144 | 4655 ft | 273 kts | 118° |
| 2026-05-08 17:28 | 45.75416 | 21.52592 | 5500 ft | 276 kts | 118° |
| 2026-05-08 17:28 | 45.74557 | 21.55072 | 6291 ft | 281 kts | 118° |
| 2026-05-08 17:28 | 45.73683 | 21.57605 | 7050 ft | 285 kts | 118° |
| 2026-05-08 17:29 | 45.72805 | 21.60162 | 7818 ft | 289 kts | 118° |
| 2026-05-08 17:29 | 45.71913 | 21.62761 | 8585 ft | 292 kts | 118° |
| 2026-05-08 17:29 | 45.71012 | 21.65391 | 9372 ft | 296 kts | 118° |
| 2026-05-08 17:29 | 45.70103 | 21.68046 | 10144 ft | 299 kts | 118° |
| 2026-05-08 17:30 | 45.69163 | 21.70790 | 10528 ft | 317 kts | 118° |
| 2026-05-08 17:30 | 45.68158 | 21.73716 | 10689 ft | 340 kts | 118° |
| 2026-05-08 17:30 | 45.67083 | 21.76845 | 10944 ft | 359 kts | 118° |
| 2026-05-08 17:30 | 45.65969 | 21.80096 | 11490 ft | 367 kts | 118° |
| 2026-05-08 17:31 | 45.64838 | 21.83395 | 12171 ft | 372 kts | 118° |
| 2026-05-08 17:31 | 45.63694 | 21.86730 | 12866 ft | 376 kts | 118° |
| 2026-05-08 17:31 | 45.62547 | 21.90070 | 13555 ft | 381 kts | 118° |
| 2026-05-08 17:31 | 45.61369 | 21.93492 | 14207 ft | 387 kts | 118° |
| 2026-05-08 17:32 | 45.60178 | 21.96960 | 14897 ft | 390 kts | 117° |
| 2026-05-08 17:32 | 45.59132 | 22.00555 | 15614 ft | 394 kts | 113° |
| 2026-05-08 17:32 | 45.58186 | 22.04251 | 16304 ft | 398 kts | 112° |
| 2026-05-08 17:32 | 45.57267 | 22.08007 | 16966 ft | 403 kts | 111° |
| 2026-05-08 17:33 | 45.56343 | 22.11803 | 17630 ft | 407 kts | 112° |
| 2026-05-08 17:33 | 45.55401 | 22.15637 | 18290 ft | 411 kts | 112° |
| 2026-05-08 17:33 | 45.54440 | 22.19502 | 18875 ft | 415 kts | 112° |
| 2026-05-08 17:33 | 45.53462 | 22.23393 | 19474 ft | 418 kts | 112° |
| 2026-05-08 17:34 | 45.52472 | 22.27300 | 20065 ft | 421 kts | 113° |
| 2026-05-08 17:34 | 45.51467 | 22.31243 | 20638 ft | 424 kts | 113° |
| 2026-05-08 17:34 | 45.50451 | 22.35212 | 21172 ft | 428 kts | 113° |
| 2026-05-08 17:34 | 45.49424 | 22.39214 | 21757 ft | 430 kts | 113° |
| 2026-05-08 17:35 | 45.48390 | 22.43233 | 22317 ft | 433 kts | 113° |
| 2026-05-08 17:35 | 45.47361 | 22.47229 | 22849 ft | 437 kts | 113° |
| 2026-05-08 17:35 | 45.46309 | 22.51302 | 23364 ft | 440 kts | 113° |
| 2026-05-08 17:35 | 45.45248 | 22.55408 | 23844 ft | 443 kts | 113° |
| 2026-05-08 17:36 | 45.44164 | 22.59598 | 24278 ft | 446 kts | 113° |
| 2026-05-08 17:36 | 45.43103 | 22.63690 | 24769 ft | 447 kts | 113° |
| 2026-05-08 17:36 | 45.42023 | 22.67848 | 25052 ft | 448 kts | 113° |
| 2026-05-08 17:36 | 45.40942 | 22.72003 | 25050 ft | 446 kts | 114° |
| 2026-05-08 17:37 | 45.39861 | 22.76155 | 25063 ft | 447 kts | 114° |
| 2026-05-08 17:37 | 45.38777 | 22.80306 | 25073 ft | 448 kts | 114° |
| 2026-05-08 17:37 | 45.37686 | 22.84474 | 25075 ft | 449 kts | 114° |
| 2026-05-08 17:37 | 45.36596 | 22.88635 | 25064 ft | 449 kts | 114° |
| 2026-05-08 17:38 | 45.35504 | 22.92794 | 25074 ft | 449 kts | 114° |
| 2026-05-08 17:38 | 45.34409 | 22.96957 | 25072 ft | 449 kts | 114° |
| 2026-05-08 17:38 | 45.33312 | 23.01119 | 25072 ft | 449 kts | 114° |
| 2026-05-08 17:38 | 45.32217 | 23.05269 | 25067 ft | 448 kts | 114° |
| 2026-05-08 17:39 | 45.31136 | 23.09358 | 25071 ft | 447 kts | 114° |
| 2026-05-08 17:39 | 45.30042 | 23.13490 | 25064 ft | 446 kts | 114° |
| 2026-05-08 17:39 | 45.28946 | 23.17620 | 25078 ft | 446 kts | 114° |
| 2026-05-08 17:39 | 45.27851 | 23.21739 | 25064 ft | 446 kts | 114° |
| 2026-05-08 17:40 | 45.26757 | 23.25846 | 25078 ft | 445 kts | 114° |
| 2026-05-08 17:40 | 45.25659 | 23.29961 | 25076 ft | 445 kts | 114° |
| 2026-05-08 17:40 | 45.24563 | 23.34064 | 25065 ft | 445 kts | 114° |
| 2026-05-08 17:40 | 45.23465 | 23.38167 | 25073 ft | 445 kts | 114° |
| 2026-05-08 17:41 | 45.22364 | 23.42271 | 25079 ft | 445 kts | 114° |
| 2026-05-08 17:41 | 45.21263 | 23.46373 | 25070 ft | 445 kts | 114° |
| 2026-05-08 17:41 | 45.20161 | 23.50468 | 25070 ft | 445 kts | 114° |
| 2026-05-08 17:41 | 45.19053 | 23.54577 | 25069 ft | 446 kts | 114° |
| 2026-05-08 17:42 | 45.17946 | 23.58680 | 25076 ft | 446 kts | 114° |
| 2026-05-08 17:42 | 45.16835 | 23.62787 | 25067 ft | 446 kts | 114° |
| 2026-05-08 17:42 | 45.15724 | 23.66887 | 25068 ft | 446 kts | 114° |
| 2026-05-08 17:42 | 45.14610 | 23.70992 | 25052 ft | 446 kts | 114° |
| 2026-05-08 17:43 | 45.13496 | 23.75093 | 25063 ft | 446 kts | 114° |
| 2026-05-08 17:43 | 45.12379 | 23.79195 | 25060 ft | 446 kts | 114° |
| 2026-05-08 17:43 | 45.11279 | 23.83228 | 25068 ft | 446 kts | 114° |
| 2026-05-08 17:43 | 45.10146 | 23.87376 | 25066 ft | 446 kts | 114° |
| 2026-05-08 17:44 | 45.09046 | 23.91395 | 25058 ft | 438 kts | 114° |
| 2026-05-08 17:44 | 45.07950 | 23.95405 | 24855 ft | 428 kts | 114° |
| 2026-05-08 17:44 | 45.06882 | 23.99301 | 24475 ft | 423 kts | 114° |
| 2026-05-08 17:44 | 45.05832 | 24.03118 | 24047 ft | 419 kts | 114° |
| 2026-05-08 17:45 | 45.04779 | 24.06941 | 23592 ft | 416 kts | 114° |
| 2026-05-08 17:45 | 45.03728 | 24.10747 | 23042 ft | 413 kts | 114° |
| 2026-05-08 17:45 | 45.02684 | 24.14520 | 22546 ft | 410 kts | 114° |
| 2026-05-08 17:45 | 45.01652 | 24.18249 | 22065 ft | 406 kts | 114° |
| 2026-05-08 17:46 | 45.00624 | 24.21959 | 21596 ft | 403 kts | 114° |
| 2026-05-08 17:46 | 44.99605 | 24.25626 | 21111 ft | 400 kts | 114° |
| 2026-05-08 17:46 | 44.98593 | 24.29269 | 20664 ft | 397 kts | 114° |
| 2026-05-08 17:46 | 44.97585 | 24.32887 | 20214 ft | 394 kts | 114° |
| 2026-05-08 17:47 | 44.96580 | 24.36488 | 19750 ft | 392 kts | 114° |
| 2026-05-08 17:47 | 44.95580 | 24.40070 | 19275 ft | 391 kts | 114° |
| 2026-05-08 17:47 | 44.94595 | 24.43590 | 18829 ft | 389 kts | 114° |
| 2026-05-08 17:47 | 44.93924 | 24.45988 | 18517 ft | 388 kts | 114° |
| 2026-05-08 17:48 | 44.92612 | 24.50664 | 17861 ft | 386 kts | 114° |
| 2026-05-08 17:48 | 44.91627 | 24.54172 | 17397 ft | 383 kts | 114° |
| 2026-05-08 17:48 | 44.90648 | 24.57652 | 16937 ft | 380 kts | 114° |
| 2026-05-08 17:48 | 44.89676 | 24.61105 | 16493 ft | 378 kts | 114° |
| 2026-05-08 17:49 | 44.88707 | 24.64539 | 16050 ft | 375 kts | 114° |
| 2026-05-08 17:49 | 44.87746 | 24.67944 | 15614 ft | 373 kts | 114° |
| 2026-05-08 17:49 | 44.86787 | 24.71334 | 15169 ft | 370 kts | 114° |
| 2026-05-08 17:49 | 44.85848 | 24.74648 | 14753 ft | 368 kts | 114° |
| 2026-05-08 17:50 | 44.84887 | 24.78036 | 14315 ft | 366 kts | 114° |
| 2026-05-08 17:50 | 44.83956 | 24.81314 | 13870 ft | 364 kts | 114° |
| 2026-05-08 17:50 | 44.83017 | 24.84615 | 13403 ft | 362 kts | 114° |
| 2026-05-08 17:50 | 44.82084 | 24.87891 | 12950 ft | 359 kts | 114° |
| 2026-05-08 17:51 | 44.81157 | 24.91142 | 12515 ft | 356 kts | 114° |
| 2026-05-08 17:51 | 44.80237 | 24.94365 | 12091 ft | 354 kts | 113° |
| 2026-05-08 17:51 | 44.79319 | 24.97575 | 11662 ft | 351 kts | 113° |
| 2026-05-08 17:51 | 44.78410 | 25.00752 | 11249 ft | 348 kts | 113° |
| 2026-05-08 17:52 | 44.77514 | 25.03879 | 11080 ft | 339 kts | 113° |
| 2026-05-08 17:52 | 44.76648 | 25.06899 | 11036 ft | 325 kts | 113° |
| 2026-05-08 17:52 | 44.75029 | 25.12537 | 11027 ft | 297 kts | 114° |
| 2026-05-08 17:53 | 44.74272 | 25.15168 | 11025 ft | 284 kts | 113° |
| 2026-05-08 17:53 | 44.73537 | 25.17718 | 10731 ft | 284 kts | 113° |
| 2026-05-08 17:53 | 44.72770 | 25.20370 | 10059 ft | 299 kts | 113° |
| 2026-05-08 17:53 | 44.71981 | 25.23095 | 9596 ft | 302 kts | 113° |
| 2026-05-08 17:54 | 44.71185 | 25.25847 | 9190 ft | 304 kts | 113° |
| 2026-05-08 17:54 | 44.70390 | 25.28592 | 8843 ft | 303 kts | 113° |
| 2026-05-08 17:54 | 44.69598 | 25.31327 | 8519 ft | 301 kts | 113° |
| 2026-05-08 17:54 | 44.68811 | 25.34038 | 8212 ft | 299 kts | 113° |
| 2026-05-08 17:55 | 44.68039 | 25.36698 | 7908 ft | 297 kts | 113° |
| 2026-05-08 17:55 | 44.67260 | 25.39378 | 7600 ft | 295 kts | 113° |
| 2026-05-08 17:55 | 44.66485 | 25.42041 | 7299 ft | 294 kts | 113° |
| 2026-05-08 17:55 | 44.65713 | 25.44689 | 6995 ft | 292 kts | 113° |
| 2026-05-08 17:56 | 44.64946 | 25.47321 | 6683 ft | 292 kts | 113° |
| 2026-05-08 17:56 | 44.64177 | 25.49955 | 6372 ft | 290 kts | 113° |
| 2026-05-08 17:56 | 44.63411 | 25.52573 | 6053 ft | 289 kts | 113° |
| 2026-05-08 17:56 | 44.62649 | 25.55178 | 5737 ft | 288 kts | 113° |
| 2026-05-08 17:57 | 44.61889 | 25.57775 | 5436 ft | 286 kts | 113° |
| 2026-05-08 17:57 | 44.61134 | 25.60349 | 5138 ft | 285 kts | 113° |
| 2026-05-08 17:57 | 44.60383 | 25.62908 | 4845 ft | 283 kts | 113° |
| 2026-05-08 17:57 | 44.59641 | 25.65437 | 4666 ft | 276 kts | 113° |
| 2026-05-08 17:58 | 44.58919 | 25.67893 | 4525 ft | 269 kts | 113° |
| 2026-05-08 17:58 | 44.58213 | 25.70293 | 4404 ft | 261 kts | 113° |
| 2026-05-08 17:58 | 44.57530 | 25.72612 | 4291 ft | 253 kts | 113° |
| 2026-05-08 17:58 | 44.56868 | 25.74859 | 4179 ft | 246 kts | 113° |
| 2026-05-08 17:59 | 44.56219 | 25.77057 | 3977 ft | 240 kts | 113° |
| 2026-05-08 17:59 | 44.55598 | 25.79157 | 3747 ft | 234 kts | 113° |
| 2026-05-08 17:59 | 44.54984 | 25.81232 | 3519 ft | 226 kts | 113° |
| 2026-05-08 17:59 | 44.54603 | 25.83305 | 3329 ft | 215 kts | 87° |
| 2026-05-08 18:00 | 44.54821 | 25.85310 | 3114 ft | 205 kts | 82° |
| 2026-05-08 18:00 | 44.55094 | 25.89152 | 2649 ft | 187 kts | 84° |
| 2026-05-08 18:00 | 44.55220 | 25.90899 | 2432 ft | 174 kts | 84° |
| 2026-05-08 18:01 | 44.55340 | 25.92533 | 2235 ft | 161 kts | 84° |
| 2026-05-08 18:01 | 44.55456 | 25.94110 | 2041 ft | 164 kts | 84° |
| 2026-05-08 18:01 | 44.55573 | 25.95693 | 1843 ft | 162 kts | 84° |
| 2026-05-08 18:01 | 44.55690 | 25.97246 | 1660 ft | 158 kts | 84° |
| 2026-05-08 18:02 | 44.55802 | 25.98775 | 1463 ft | 157 kts | 84° |
| 2026-05-08 18:02 | 44.55877 | 25.99783 | 1343 ft | 156 kts | 84° |
| 2026-05-08 18:02 | 44.55988 | 26.01291 | 1159 ft | 155 kts | 84° |
| 2026-05-08 18:02 | 44.56137 | 26.03284 | 910 ft | 152 kts | 84° |
| 2026-05-08 18:03 | 44.56214 | 26.04256 | 790 ft | 151 kts | 83° |
| 2026-05-08 18:03 | 44.56319 | 26.05734 | 618 ft | 153 kts | 83° |
| 2026-05-08 18:03 | 44.56466 | 26.07694 | 369 ft | 151 kts | 83° |
| 2026-05-08 18:03 | 44.56574 | 26.09078 | 316 ft | 127 kts | 83° |
| 2026-05-08 18:04 | 44.56628 | 26.09813 | 316 ft | 97 kts | 83° |
| 2026-05-08 18:04 | 44.56683 | 26.10543 | 315 ft | 53 kts | 84° |
| 2026-05-08 18:04 | 44.56696 | 26.10698 | 314 ft | 9 kts | 77° |
| 2026-05-08 18:04 | 44.56738 | 26.10755 | 315 ft | 9 kts | 14° |
| 2026-05-08 18:05 | 44.56798 | 26.10753 | 316 ft | 9 kts | 354° |
| 2026-05-08 18:05 | 44.56883 | 26.10743 | 314 ft | 14 kts | 354° |
| 2026-05-08 18:05 | 44.56983 | 26.10723 | 313 ft | 14 kts | 333° |
| 2026-05-08 18:05 | 44.57043 | 26.10619 | 312 ft | 14 kts | 300° |
| 2026-05-08 18:06 | 44.57068 | 26.10481 | 310 ft | 15 kts | 265° |
| 2026-05-08 18:06 | 44.57056 | 26.10338 | 311 ft | 14 kts | 264° |
| 2026-05-08 18:06 | 44.57046 | 26.10201 | 310 ft | 14 kts | 264° |
| 2026-05-08 18:06 | 44.57033 | 26.10037 | 311 ft | 20 kts | 264° |
| 2026-05-08 18:07 | 44.57018 | 26.09836 | 313 ft | 7 kts | 263° |
| 2026-05-08 18:07 | 44.57001 | 26.09801 | 311 ft | 3 kts | 191° |
| 2026-05-08 18:07 | 44.56967 | 26.09802 | 312 ft | 2 kts | 173° |
| 2026-05-08 18:07 | 44.56964 | 26.09802 | 312 ft | 0 kts | 172° |